Time;durP1;ratioP1;P1;durP2;ratioP2;P2;SDS_P1;SDS_P2;PMS_P1;PMS_P2;Temp;Humidity;BMP_temperature;BMP_pressure;BME280_temperature;BME280_humidity;BME280_pressure;Samples;Min_cycle;Max_cycle;Signal;HPM_P1;HPM_P2
2021/01/20 00:00:59;;;;;;;20.52;11.48;;;;;;;-2.21;90.61;96527.88;5020310;28;20051;-64
2021/01/20 00:03:24;;;;;;;20.50;10.35;;;;;;;-2.22;89.96;96533.53;5015658;28;20049;-64
2021/01/20 00:05:49;;;;;;;21.50;10.88;;;;;;;-2.30;89.94;96532.28;5021363;28;20041;-68
2021/01/20 00:08:16;;;;;;;18.67;10.30;;;;;;;-2.28;89.74;96523.94;5017101;28;20076;-68
2021/01/20 00:10:41;;;;;;;35.55;15.07;;;;;;;-2.24;88.63;96520.38;5022706;28;20128;-67
2021/01/20 00:13:07;;;;;;;15.30;9.60;;;;;;;-2.24;87.58;96533.81;5022313;28;20089;-65
2021/01/20 00:15:32;;;;;;;18.55;10.07;;;;;;;-2.29;87.86;96528.50;5027528;28;20049;-66
2021/01/20 00:17:58;;;;;;;38.72;16.35;;;;;;;-2.39;87.31;96529.44;5024555;28;20049;-67
2021/01/20 00:20:23;;;;;;;34.40;14.00;;;;;;;-2.45;87.85;96529.78;5017726;28;20584;-65
2021/01/20 00:22:49;;;;;;;19.90;9.55;;;;;;;-2.54;88.01;96524.25;5004210;28;20041;-67
2021/01/20 00:25:18;;;;;;;19.17;8.82;;;;;;;-2.67;88.26;96514.22;5017442;28;20133;-66
2021/01/20 00:27:44;;;;;;;17.40;10.30;;;;;;;-2.84;89.13;96507.44;5022819;28;20045;-67
2021/01/20 00:30:10;;;;;;;25.23;11.10;;;;;;;-2.77;89.98;96507.91;5017317;28;20043;-65
2021/01/20 00:32:36;;;;;;;23.95;11.45;;;;;;;-2.78;89.39;96508.97;5020049;28;20045;-67
2021/01/20 00:35:05;;;;;;;22.38;10.65;;;;;;;-2.92;89.84;96508.88;5021848;28;20033;-67
2021/01/20 00:37:30;;;;;;;22.15;10.88;;;;;;;-3.08;89.50;96510.09;5003314;28;20449;-65
2021/01/20 00:39:56;;;;;;;28.75;12.38;;;;;;;-3.20;89.87;96509.69;5022678;28;20048;-68
2021/01/20 00:42:22;;;;;;;19.92;11.32;;;;;;;-3.32;89.88;96504.69;5015975;28;20287;-67
2021/01/20 00:44:47;;;;;;;18.10;9.70;;;;;;;-3.50;90.77;96498.94;5021544;28;20038;-65
2021/01/20 00:47:12;;;;;;;15.95;9.45;;;;;;;-3.57;91.22;96495.78;5017085;28;20037;-66
2021/01/20 00:49:38;;;;;;;19.35;10.48;;;;;;;-3.52;91.26;96500.31;5015688;28;20048;-65
2021/01/20 00:52:03;;;;;;;27.30;11.95;;;;;;;-3.38;90.74;96497.78;5018823;28;20056;-67
2021/01/20 00:54:29;;;;;;;19.80;10.63;;;;;;;-3.36;90.12;96509.81;5002526;28;20042;-67
2021/01/20 00:56:54;;;;;;;20.27;10.93;;;;;;;-3.41;89.75;96501.03;5021659;28;20048;-67
2021/01/20 00:59:19;;;;;;;16.67;9.38;;;;;;;-3.22;89.27;96504.59;5014371;28;20096;-67
2021/01/20 01:01:45;;;;;;;16.95;9.57;;;;;;;-3.43;88.75;96495.94;5021697;28;20037;-66
2021/01/20 01:04:10;;;;;;;15.27;9.05;;;;;;;-3.51;90.20;96492.00;5016880;28;20099;-66
2021/01/20 01:06:35;;;;;;;17.27;10.25;;;;;;;-3.99;90.33;96486.47;5018572;28;20128;-68
2021/01/20 01:09:01;;;;;;;13.80;8.75;;;;;;;-3.89;91.00;96496.31;5021192;28;20037;-68
2021/01/20 01:11:27;;;;;;;17.52;10.27;;;;;;;-3.75;90.94;96491.91;5013836;28;20407;-67
2021/01/20 01:13:52;;;;;;;14.50;8.75;;;;;;;-3.80;90.40;96488.47;5019003;28;20044;-67
2021/01/20 01:16:17;;;;;;;16.83;8.60;;;;;;;-3.80;90.09;96488.47;5016647;28;20495;-65
2021/01/20 01:18:43;;;;;;;16.17;8.65;;;;;;;-3.65;89.78;96480.34;5021964;28;20638;-68
2021/01/20 01:21:08;;;;;;;12.63;8.25;;;;;;;-3.55;89.37;96469.53;5016333;28;20042;-67
2021/01/20 01:23:33;;;;;;;13.68;8.70;;;;;;;-3.58;88.81;96472.78;5021623;28;20045;-67
2021/01/20 01:25:59;;;;;;;15.57;7.55;;;;;;;-3.49;88.73;96473.00;5017850;28;20041;-68
2021/01/20 01:28:24;;;;;;;13.90;8.25;;;;;;;-3.57;88.04;96471.69;5013629;28;20127;-66
2021/01/20 01:30:50;;;;;;;14.90;8.20;;;;;;;-3.61;88.81;96475.22;5020629;28;20452;-66
2021/01/20 01:33:15;;;;;;;14.38;8.73;;;;;;;-3.63;88.48;96477.41;5015445;28;20490;-66
2021/01/20 01:35:40;;;;;;;13.88;7.43;;;;;;;-3.69;88.45;96471.25;5019117;28;20498;-66
2021/01/20 01:38:06;;;;;;;14.60;8.02;;;;;;;-3.67;88.49;96464.56;5020855;28;20045;-66
2021/01/20 01:40:31;;;;;;;13.30;7.95;;;;;;;-3.70;88.73;96464.31;5023270;28;20068;-64
2021/01/20 01:42:57;;;;;;;17.73;8.52;;;;;;;-3.79;89.08;96461.44;5017052;28;20064;-67
2021/01/20 01:45:22;;;;;;;13.13;8.20;;;;;;;-3.94;88.73;96457.03;5016187;28;20476;-66
2021/01/20 01:47:48;;;;;;;16.40;9.02;;;;;;;-3.85;88.99;96459.91;5021624;28;20124;-65
2021/01/20 01:50:14;;;;;;;15.52;9.27;;;;;;;-3.84;88.60;96450.78;5014177;28;20057;-66
2021/01/20 01:52:41;;;;;;;11.35;7.53;;;;;;;-4.00;88.70;96450.09;5013465;28;20125;-65
2021/01/20 01:55:07;;;;;;;12.48;7.63;;;;;;;-4.00;89.24;96450.09;5015844;28;20053;-65
2021/01/20 01:57:36;;;;;;;13.10;8.80;;;;;;;-3.95;89.65;96441.25;5020483;28;20045;-66
2021/01/20 02:00:05;;;;;;;17.75;7.80;;;;;;;-3.85;89.18;96444.63;5042195;28;20041;-63
2021/01/20 02:02:30;;;;;;;13.90;8.43;;;;;;;-3.81;88.82;96438.72;5016736;28;20046;-65
2021/01/20 02:04:56;;;;;;;11.98;7.32;;;;;;;-3.93;88.39;96437.19;5011527;28;20052;-65
2021/01/20 02:07:22;;;;;;;12.40;7.65;;;;;;;-3.88;88.54;96436.38;5014041;28;20052;-65
2021/01/20 02:09:50;;;;;;;12.30;7.72;;;;;;;-3.84;87.93;96429.38;5032244;28;20037;-65
2021/01/20 02:12:35;;;;;;;16.30;7.73;;;;;;;-3.81;87.45;96433.38;5028608;28;20045;-65
2021/01/20 02:15:06;;;;;;;12.07;7.40;;;;;;;-3.88;87.72;96433.69;5026443;28;20128;-67
2021/01/20 02:18:10;;;;;;;13.50;8.10;;;;;;;-3.88;87.64;96434.47;5017563;28;20091;-67
2021/01/20 02:20:53;;;;;;;13.20;8.38;;;;;;;-3.87;86.99;96430.75;5015968;28;20041;-65
2021/01/20 02:23:20;;;;;;;12.30;7.72;;;;;;;-4.01;86.44;96431.66;5009589;28;20033;-66
2021/01/20 02:26:04;;;;;;;11.68;7.50;;;;;;;-4.09;86.88;96433.88;5019913;28;20727;-66
2021/01/20 02:28:49;;;;;;;11.25;7.50;;;;;;;-4.15;88.00;96428.81;5005854;28;20330;-66
2021/01/20 02:31:16;;;;;;;16.55;9.07;;;;;;;-4.42;87.82;96441.53;4995812;28;20041;-67
2021/01/20 02:33:46;;;;;;;19.92;8.10;;;;;;;-4.45;88.16;96425.25;5017825;28;20510;-66
2021/01/20 02:36:13;;;;;;;14.65;9.38;;;;;;;-4.37;88.05;96435.38;5013307;28;20056;-66
2021/01/20 02:38:40;;;;;;;13.27;8.27;;;;;;;-4.37;87.01;96423.91;5019471;28;20075;-64
2021/01/20 02:41:05;;;;;;;13.68;8.77;;;;;;;-4.49;87.28;96419.66;5013846;28;20108;-66
2021/01/20 02:43:30;;;;;;;14.60;8.18;;;;;;;-4.42;86.81;96430.06;4992830;28;20491;-64
2021/01/20 02:45:56;;;;;;;16.02;8.75;;;;;;;-4.40;85.66;96422.56;5020088;28;20039;-65
2021/01/20 02:48:21;;;;;;;13.35;7.90;;;;;;;-4.51;85.60;96424.50;5011463;28;20808;-65
2021/01/20 02:50:47;;;;;;;14.23;8.52;;;;;;;-4.47;86.27;96416.72;5018959;28;20064;-65
2021/01/20 02:53:15;;;;;;;13.15;7.63;;;;;;;-4.38;86.15;96414.25;5012163;28;20111;-63
2021/01/20 02:55:44;;;;;;;13.98;7.93;;;;;;;-4.39;86.27;96415.31;5019456;28;20037;-65
2021/01/20 02:58:14;;;;;;;12.33;7.80;;;;;;;-4.45;86.02;96418.06;5009701;28;20550;-65
2021/01/20 03:00:43;;;;;;;13.05;8.38;;;;;;;-4.56;86.42;96418.38;5012175;28;20135;-65
2021/01/20 03:06:31;;;;;;;14.90;7.97;;;;;;;-4.49;86.67;96408.97;5001954;28;20049;-66
2021/01/20 03:08:57;;;;;;;15.30;8.40;;;;;;;-4.64;86.49;96412.53;5013229;28;20121;-66
2021/01/20 03:11:22;;;;;;;14.75;7.78;;;;;;;-4.66;86.96;96409.34;5012769;28;20057;-65
2021/01/20 03:13:49;;;;;;;12.82;8.25;;;;;;;-4.72;86.83;96407.75;5016599;28;20055;-63
2021/01/20 03:16:24;;;;;;;14.55;7.93;;;;;;;-4.74;86.38;96409.13;5014507;28;20040;-63
2021/01/20 03:18:49;;;;;;;13.15;8.48;;;;;;;-4.89;86.79;96405.44;5018253;28;20045;-64
2021/01/20 03:21:15;;;;;;;16.98;8.70;;;;;;;-4.91;87.10;96396.91;5010361;28;20088;-63
2021/01/20 03:23:40;;;;;;;15.18;7.80;;;;;;;-4.85;86.29;96398.47;5019020;28;20050;-63
2021/01/20 03:26:06;;;;;;;12.63;7.43;;;;;;;-4.85;86.46;96387.00;5016674;28;20139;-63
2021/01/20 03:28:31;;;;;;;13.85;7.53;;;;;;;-5.20;85.78;96392.22;5026708;28;20041;-63
2021/01/20 03:30:57;;;;;;;15.18;7.82;;;;;;;-5.35;85.90;96381.59;5020120;28;20038;-67
2021/01/20 03:33:22;;;;;;;14.85;8.40;;;;;;;-5.38;86.31;96385.63;5014472;28;20454;-66
2021/01/20 03:35:48;;;;;;;16.15;7.85;;;;;;;-5.26;87.31;96382.66;5020067;28;20139;-66
2021/01/20 03:38:13;;;;;;;13.88;8.38;;;;;;;-5.21;87.05;96384.50;5029652;28;20041;-65
2021/01/20 03:40:38;;;;;;;14.45;7.65;;;;;;;-5.18;86.96;96378.63;5033823;28;20060;-64
2021/01/20 03:43:04;;;;;;;13.88;8.40;;;;;;;-5.42;87.03;96373.06;5007956;28;20049;-64
2021/01/20 03:45:30;;;;;;;12.93;7.95;;;;;;;-5.61;88.02;96372.88;4985148;28;20486;-64
2021/01/20 03:47:55;;;;;;;16.73;7.93;;;;;;;-5.39;88.30;96370.66;5009864;28;20065;-67
2021/01/20 03:50:21;;;;;;;15.63;8.75;;;;;;;-5.19;87.80;96364.44;5003817;28;20629;-64
2021/01/20 03:52:46;;;;;;;12.85;8.20;;;;;;;-5.12;87.96;96366.03;5013584;28;20073;-66
2021/01/20 03:55:12;;;;;;;13.85;8.82;;;;;;;-5.13;87.95;96380.44;5015443;28;20045;-65
2021/01/20 03:57:37;;;;;;;15.35;8.73;;;;;;;-4.98;87.97;96368.91;5019097;28;20150;-66
2021/01/20 04:00:05;;;;;;;13.57;8.88;;;;;;;-4.96;87.53;96370.22;5033527;28;20045;-64
2021/01/20 04:02:30;;;;;;;16.30;9.00;;;;;;;-4.91;87.18;96364.06;5019572;28;20396;-64
2021/01/20 04:04:56;;;;;;;16.13;8.85;;;;;;;-4.98;86.42;96366.25;5018263;28;20046;-63
2021/01/20 04:07:21;;;;;;;14.55;8.32;;;;;;;-5.03;86.76;96365.19;5015298;28;20068;-65
2021/01/20 04:09:46;;;;;;;15.52;8.35;;;;;;;-5.48;88.05;96353.63;5020347;28;20179;-66
2021/01/20 04:12:12;;;;;;;13.45;8.52;;;;;;;-5.31;88.40;96363.97;5017339;28;20098;-66
2021/01/20 04:14:38;;;;;;;14.32;8.93;;;;;;;-5.24;88.38;96366.34;5023700;28;20045;-66
2021/01/20 04:17:03;;;;;;;16.10;8.77;;;;;;;-5.19;88.25;96364.44;5017579;28;20045;-62
2021/01/20 04:19:29;;;;;;;13.70;8.07;;;;;;;-5.17;88.43;96366.84;5018392;28;20057;-65
2021/01/20 04:21:54;;;;;;;16.48;8.27;;;;;;;-5.31;88.48;96361.31;5022476;28;20041;-63
2021/01/20 04:24:20;;;;;;;16.50;8.32;;;;;;;-5.44;89.07;96364.53;5000678;28;20068;-66
2021/01/20 04:26:45;;;;;;;12.85;8.90;;;;;;;-5.41;89.32;96364.00;5022021;28;20493;-66
2021/01/20 04:29:16;;;;;;;15.65;8.82;;;;;;;-5.80;88.48;96351.28;5014259;28;20449;-66
2021/01/20 04:31:42;;;;;;;16.50;8.10;;;;;;;-6.09;89.73;96351.91;5008409;28;20069;-65
2021/01/20 04:34:08;;;;;;;12.13;8.30;;;;;;;-6.06;90.51;96347.91;5015974;28;20391;-64
2021/01/20 04:36:34;;;;;;;19.27;8.18;;;;;;;-5.76;90.72;96345.16;5015461;28;20049;-64
2021/01/20 04:38:59;;;;;;;14.00;8.07;;;;;;;-5.52;89.95;96330.44;5021288;28;20088;-63
2021/01/20 04:41:26;;;;;;;13.98;8.25;;;;;;;-5.28;90.93;96346.59;4984329;28;20530;-64
2021/01/20 04:43:51;;;;;;;15.88;8.38;;;;;;;-5.31;90.41;96342.63;5019646;28;20666;-64
2021/01/20 04:46:17;;;;;;;15.65;8.55;;;;;;;-5.16;88.78;96339.06;4999576;28;20034;-67
2021/01/20 04:48:43;;;;;;;15.10;7.95;;;;;;;-5.08;88.25;96343.84;4999628;28;20095;-64
2021/01/20 04:51:09;;;;;;;15.40;8.57;;;;;;;-5.15;88.08;96351.34;5012418;28;20449;-64
2021/01/20 04:53:38;;;;;;;13.95;7.95;;;;;;;-5.12;88.76;96342.78;5021182;28;20038;-64
2021/01/20 04:56:06;;;;;;;14.07;8.52;;;;;;;-5.07;87.44;96350.00;5016509;28;20550;-62
2021/01/20 04:58:32;;;;;;;12.65;7.38;;;;;;;-5.46;87.21;96340.00;5019976;28;20053;-64
2021/01/20 05:00:58;;;;;;;15.30;8.60;;;;;;;-5.43;87.73;96340.25;5015629;28;20037;-67
2021/01/20 05:03:24;;;;;;;16.70;8.82;;;;;;;-5.40;86.81;96349.59;5013697;28;20530;-64
2021/01/20 05:05:53;;;;;;;13.13;8.00;;;;;;;-5.40;86.63;96342.38;5003602;28;20046;-63
2021/01/20 05:08:18;;;;;;;16.63;9.23;;;;;;;-5.47;86.88;96344.53;5017223;28;20123;-65
2021/01/20 05:10:43;;;;;;;14.40;8.57;;;;;;;-5.48;87.01;96340.28;5026072;28;20045;-64
2021/01/20 05:13:23;;;;;;;16.65;8.88;;;;;;;-5.47;86.92;96343.75;5016181;28;20048;-65
2021/01/20 05:15:49;;;;;;;16.05;7.82;;;;;;;-5.55;87.91;96347.75;5017364;28;20042;-64
2021/01/20 05:18:14;;;;;;;15.23;7.95;;;;;;;-5.51;87.48;96343.50;5005635;28;20384;-64
2021/01/20 05:20:40;;;;;;;15.40;8.30;;;;;;;-5.41;86.95;96348.78;5015871;28;20045;-64
2021/01/20 05:23:07;;;;;;;11.23;6.38;;;;;;;-5.53;86.96;96344.81;5015076;28;20136;-64
2021/01/20 05:25:34;;;;;;;13.52;7.70;;;;;;;-5.43;87.24;96344.81;5008550;28;20156;-64
2021/01/20 05:28:20;;;;;;;12.25;7.93;;;;;;;-5.34;86.14;96343.16;5020737;28;20552;-64
2021/01/20 05:30:49;;;;;;;16.70;8.77;;;;;;;-5.41;86.95;96338.09;5020134;28;20134;-64
2021/01/20 05:33:18;;;;;;;;;;;;;;;-5.72;86.84;96345.41;5015430;28;20037;-65
2021/01/20 05:35:45;;;;;;;14.68;8.52;;;;;;;-5.76;87.40;96336.38;5021583;28;20007;-65
2021/01/20 05:38:10;;;;;;;13.50;8.48;;;;;;;-6.17;88.14;96328.47;5016447;28;20038;-64
2021/01/20 05:40:36;;;;;;;13.25;7.75;;;;;;;-6.07;89.21;96330.31;5018989;28;20041;-64
2021/01/20 05:43:03;;;;;;;14.00;8.15;;;;;;;-6.00;88.44;96322.84;5018146;28;20046;-63
2021/01/20 05:45:29;;;;;;;16.92;8.68;;;;;;;-6.04;89.97;96327.13;5019187;28;20052;-64
2021/01/20 05:48:00;;;;;;;14.27;8.68;;;;;;;-5.69;89.56;96331.56;5020497;28;20128;-66
2021/01/20 05:50:26;;;;;;;15.52;8.60;;;;;;;-5.60;89.00;96329.09;5001206;28;20394;-66
2021/01/20 05:53:05;;;;;;;12.25;7.47;;;;;;;-5.44;88.79;96327.19;5012084;28;20058;-66
2021/01/20 05:55:30;;;;;;;12.47;7.87;;;;;;;-5.48;88.83;96323.47;5009202;28;20044;-65
2021/01/20 05:57:56;;;;;;;12.57;7.28;;;;;;;-5.40;88.82;96322.91;5002570;28;20669;-65
2021/01/20 06:00:22;;;;;;;14.95;7.88;;;;;;;-5.33;88.94;96327.94;5003650;28;20573;-66
2021/01/20 06:02:53;;;;;;;12.63;7.32;;;;;;;-5.28;88.93;96322.56;5008895;28;20069;-64
2021/01/20 06:05:18;;;;;;;13.48;8.05;;;;;;;-5.38;88.18;96323.44;5013745;28;20039;-65
2021/01/20 06:07:45;;;;;;;12.10;7.50;;;;;;;-5.24;88.40;96319.09;5017319;28;20406;-65
2021/01/20 06:10:10;;;;;;;14.38;7.97;;;;;;;-5.10;87.57;96319.28;5009301;28;20103;-65
2021/01/20 06:12:36;;;;;;;11.05;7.30;;;;;;;-5.05;87.29;96326.47;5007028;28;20475;-65
2021/01/20 06:15:04;;;;;;;11.95;7.95;;;;;;;-5.02;86.68;96331.28;5028330;28;20053;-65
2021/01/20 06:17:34;;;;;;;11.77;7.70;;;;;;;-5.00;85.83;96332.59;5028261;28;20057;-65
2021/01/20 06:20:02;;;;;;;12.95;8.07;;;;;;;-4.95;85.49;96330.94;5022096;28;20440;-65
2021/01/20 06:22:31;;;;;;;16.33;7.28;;;;;;;-4.93;85.20;96324.28;5007915;28;20053;-65
2021/01/20 06:25:23;;;;;;;12.57;8.30;;;;;;;-4.90;84.86;96329.03;5008382;28;20068;-66
2021/01/20 06:28:07;;;;;;;14.80;7.90;;;;;;;-4.95;84.78;96318.41;5014637;28;20052;-65
2021/01/20 06:30:41;;;;;;;12.57;7.63;;;;;;;-5.18;83.99;96326.00;5008619;28;20136;-63
2021/01/20 06:33:09;;;;;;;15.40;8.00;;;;;;;-5.18;83.63;96334.00;5009757;28;20069;-65
2021/01/20 06:35:44;;;;;;;14.57;8.65;;;;;;;-5.15;84.00;96329.97;5018915;28;20427;-66
2021/01/20 06:38:32;;;;;;;16.42;7.50;;;;;;;-5.20;84.41;96327.34;5014542;28;20041;-63
2021/01/20 06:41:07;;;;;;;12.15;7.15;;;;;;;-5.17;85.24;96326.78;5007920;28;20104;-64
2021/01/20 06:43:42;;;;;;;14.35;8.00;;;;;;;-5.14;85.32;96318.25;5017663;28;20042;-65
2021/01/20 06:46:20;;;;;;;12.75;7.00;;;;;;;-5.13;86.47;96325.19;4997525;28;20495;-65
2021/01/20 06:48:54;;;;;;;13.68;8.40;;;;;;;-5.20;86.67;96322.81;5010203;28;20415;-64
2021/01/20 06:51:21;;;;;;;13.02;8.05;;;;;;;-5.26;87.41;96320.44;5011461;28;20030;-64
2021/01/20 06:53:59;;;;;;;15.68;8.38;;;;;;;-5.22;87.51;96322.28;5018988;28;20037;-66
2021/01/20 06:56:57;;;;;;;14.30;8.68;;;;;;;-5.66;88.69;96330.19;5014894;28;20056;-65
2021/01/20 06:59:24;;;;;;;12.60;8.48;;;;;;;-5.93;89.80;96318.00;4962239;28;20500;-65
2021/01/20 07:02:01;;;;;;;15.10;9.10;;;;;;;-5.87;90.36;96326.78;5020130;28;20509;-67
2021/01/20 07:04:38;;;;;;;15.73;9.60;;;;;;;-5.91;91.38;96326.50;5004788;28;20503;-66
2021/01/20 07:07:05;;;;;;;16.75;8.73;;;;;;;-5.73;91.90;96332.34;5009863;28;20041;-64
2021/01/20 07:09:49;;;;;;;16.77;9.25;;;;;;;-5.91;91.56;96326.50;5009706;28;20041;-66
2021/01/20 07:12:18;;;;;;;16.20;8.75;;;;;;;-5.97;91.85;96317.75;4996994;28;20115;-66
2021/01/20 07:14:44;;;;;;;;;;;;;;;-5.75;92.08;96316.59;5008769;28;20041;-64
2021/01/20 07:17:11;;;;;;;18.92;9.88;;;;;;;-5.49;92.20;96313.84;5012105;28;19939;-65
2021/01/20 07:19:40;;;;;;;18.13;10.10;;;;;;;-5.38;91.77;96313.53;5001089;28;20045;-66
2021/01/20 07:22:06;;;;;;;21.75;11.13;;;;;;;-5.13;91.51;96300.34;4996732;28;20033;-65
2021/01/20 07:24:32;;;;;;;24.40;11.68;;;;;;;-5.13;90.57;96298.47;5023278;28;20106;-66
2021/01/20 07:27:06;;;;;;;28.08;11.23;;;;;;;-5.18;89.72;96293.16;5022888;28;20061;-67
2021/01/20 07:29:32;;;;;;;17.27;10.18;;;;;;;-5.08;90.23;96295.75;5020278;28;20694;-65
2021/01/20 07:31:59;;;;;;;16.90;9.88;;;;;;;-4.98;89.99;96288.78;5023458;28;20045;-65
2021/01/20 07:34:35;;;;;;;20.42;10.93;;;;;;;-4.75;89.42;96285.41;4997146;28;20489;-65
2021/01/20 07:37:16;;;;;;;18.52;10.07;;;;;;;-4.61;89.53;96290.91;5022538;28;20080;-66
2021/01/20 07:39:42;;;;;;;21.95;12.48;;;;;;;-4.54;88.15;96296.72;5004957;28;20052;-68
2021/01/20 07:42:09;;;;;;;25.83;12.20;;;;;;;-4.39;87.92;96295.84;5015340;28;20041;-66
2021/01/20 07:44:36;;;;;;;24.05;13.35;;;;;;;-4.54;87.11;96288.72;5024220;28;20131;-67
2021/01/20 07:47:03;;;;;;;24.55;13.90;;;;;;;-4.49;87.42;96299.38;5034590;28;20503;-66
2021/01/20 07:49:30;;;;;;;22.27;12.50;;;;;;;-4.30;87.68;96290.69;5022197;28;20471;-66
2021/01/20 07:52:06;;;;;;;19.83;12.10;;;;;;;-4.13;87.35;96290.25;5021315;28;20060;-66
2021/01/20 07:54:48;;;;;;;20.20;11.55;;;;;;;-3.84;86.33;96290.22;5012038;28;20037;-67
2021/01/20 07:57:19;;;;;;;17.17;9.85;;;;;;;-3.62;84.67;96291.59;4998675;28;20499;-66
2021/01/20 07:59:45;;;;;;;23.10;10.13;;;;;;;-3.46;83.57;96285.78;5023406;28;20041;-67
2021/01/20 08:02:13;;;;;;;18.83;8.70;;;;;;;-3.58;83.71;96289.94;5011676;28;20111;-65
2021/01/20 08:04:39;;;;;;;17.23;10.52;;;;;;;-3.91;83.68;96295.91;4995074;28;20081;-66
2021/01/20 08:07:06;;;;;;;17.88;10.45;;;;;;;-4.33;84.89;96285.91;5020844;28;20042;-65
2021/01/20 08:09:35;;;;;;;22.15;11.80;;;;;;;-4.03;85.24;96293.63;5021119;28;20049;-66
2021/01/20 08:12:03;;;;;;;18.40;9.77;;;;;;;-3.74;85.12;96286.66;5024946;28;20041;-66
2021/01/20 08:14:28;;;;;;;17.20;9.27;;;;;;;-3.22;82.08;96284.97;5015066;28;20048;-66
2021/01/20 08:16:54;;;;;;;18.02;10.95;;;;;;;-3.25;81.57;96287.41;5019826;28;20038;-66
2021/01/20 08:19:20;;;;;;;14.70;9.15;;;;;;;-2.82;80.79;96292.72;5018425;28;20041;-66
2021/01/20 08:21:45;;;;;;;13.98;7.45;;;;;;;-2.36;78.83;96289.31;5022730;28;20080;-67
2021/01/20 08:24:19;;;;;;;17.15;9.05;;;;;;;-2.32;76.92;96293.03;5005975;28;20046;-66
2021/01/20 08:26:52;;;;;;;24.90;19.30;;;;;;;-2.50;78.53;96297.34;5017633;28;20161;-66
2021/01/20 08:29:18;;;;;;;33.67;26.38;;;;;;;-3.07;81.78;96294.66;5018555;28;20514;-68
2021/01/20 08:31:44;;;;;;;18.45;12.20;;;;;;;-2.83;82.83;96288.44;5016054;28;20053;-66
2021/01/20 08:34:23;;;;;;;19.38;9.38;;;;;;;-2.46;81.49;96292.97;5024747;28;20065;-64
2021/01/20 08:36:56;;;;;;;19.85;9.38;;;;;;;-1.73;80.71;96293.31;5037344;28;20093;-67
2021/01/20 08:39:23;;;;;;;18.05;8.57;;;;;;;-1.90;77.71;96291.22;5020899;28;20049;-67
2021/01/20 08:42:14;;;;;;;21.85;10.80;;;;;;;-2.46;79.97;96287.63;5010876;28;20046;-65
2021/01/20 08:44:39;;;;;;;73.10;56.83;;;;;;;-2.27;82.90;96284.88;5016217;28;20072;-68
2021/01/20 08:47:05;;;;;;;15.57;7.88;;;;;;;-2.55;83.77;96279.44;5014165;28;20073;-64
2021/01/20 08:49:31;;;;;;;15.48;6.50;;;;;;;-2.44;85.77;96281.97;5012182;28;20050;-67
2021/01/20 08:51:57;;;;;;;15.55;8.52;;;;;;;-2.21;84.82;96273.00;5007208;28;20044;-66
2021/01/20 08:54:24;;;;;;;12.27;7.07;;;;;;;-1.77;83.66;96273.53;5016211;28;20041;-67
2021/01/20 08:56:49;;;;;;;11.40;6.60;;;;;;;-1.54;82.08;96269.09;5019284;28;20247;-67
2021/01/20 08:59:15;;;;;;;13.45;6.90;;;;;;;-1.54;81.50;96263.72;5013016;28;20535;-67
2021/01/20 09:01:40;;;;;;;55.70;45.00;;;;;;;-1.31;82.66;96263.81;5004768;28;20057;-67
2021/01/20 09:04:06;;;;;;;13.15;6.63;;;;;;;-1.55;82.20;96268.28;5011432;28;20164;-66
2021/01/20 09:06:32;;;;;;;13.18;6.95;;;;;;;-1.33;82.12;96261.41;5016109;28;20095;-66
2021/01/20 09:08:57;;;;;;;16.35;10.00;;;;;;;-1.32;82.10;96256.81;5014075;28;20430;-66
2021/01/20 09:11:24;;;;;;;25.33;15.68;;;;;;;-1.55;83.06;96252.19;5013209;28;20378;-68
2021/01/20 09:13:55;;;;;;;13.35;7.82;;;;;;;-1.27;84.16;96254.03;5017308;28;20072;-66
2021/01/20 09:16:30;;;;;;;12.32;7.53;;;;;;;-1.00;82.30;96240.53;5012974;28;20073;-67
2021/01/20 09:18:57;;;;;;;11.10;6.22;;;;;;;-0.46;81.06;96248.69;5017287;28;20041;-67
2021/01/20 09:21:22;;;;;;;11.30;5.75;;;;;;;-0.65;80.50;96240.81;5013988;28;20140;-65
2021/01/20 09:23:51;;;;;;;10.80;6.95;;;;;;;-0.39;80.34;96245.59;5019887;28;20179;-65
2021/01/20 09:26:17;;;;;;;10.57;6.13;;;;;;;-0.60;80.86;96243.38;5014900;28;20136;-67
2021/01/20 09:28:42;;;;;;;8.98;5.75;;;;;;;-0.43;80.42;96240.03;5020668;28;20136;-65
2021/01/20 09:31:08;;;;;;;9.52;5.78;;;;;;;-0.04;79.84;96238.50;5015839;28;20042;-66
2021/01/20 09:33:33;;;;;;;12.20;6.00;;;;;;;0.35;78.92;96234.22;5017721;28;20578;-65
2021/01/20 09:36:00;;;;;;;10.80;5.85;;;;;;;0.49;77.36;96226.03;5020189;28;20115;-65
2021/01/20 09:38:25;;;;;;;7.68;4.97;;;;;;;0.42;77.00;96227.59;5014912;28;20666;-66
2021/01/20 09:40:51;;;;;;;7.70;4.50;;;;;;;0.83;75.80;96227.22;5019891;28;20045;-66
2021/01/20 09:43:20;;;;;;;9.30;5.32;;;;;;;1.22;74.66;96228.19;5014084;28;20042;-66
2021/01/20 09:45:46;;;;;;;8.75;5.35;;;;;;;1.27;74.07;96216.44;5014482;28;20041;-67
2021/01/20 09:48:11;;;;;;;9.68;5.85;;;;;;;1.30;74.40;96207.72;5010752;28;20045;-67
2021/01/20 09:50:37;;;;;;;9.10;4.82;;;;;;;1.01;75.75;96211.84;5020149;28;20037;-66
2021/01/20 09:53:06;;;;;;;10.00;5.30;;;;;;;1.41;75.05;96202.81;5019618;28;20080;-67
2021/01/20 09:55:31;;;;;;;17.52;11.82;;;;;;;1.50;75.47;96201.66;5018837;28;20120;-66
2021/01/20 09:58:02;;;;;;;12.30;7.03;;;;;;;1.82;73.29;96196.03;5020820;28;20136;-66
2021/01/20 10:00:27;;;;;;;17.02;9.82;;;;;;;1.62;73.52;96189.41;5016350;28;20132;-66
2021/01/20 10:02:52;;;;;;;13.80;7.57;;;;;;;2.02;74.04;96179.13;5000134;28;20128;-67
2021/01/20 10:05:18;;;;;;;10.63;6.20;;;;;;;2.77;71.94;96170.44;5014951;28;20041;-67
2021/01/20 10:07:43;;;;;;;12.98;5.63;;;;;;;2.74;68.55;96175.72;5020152;28;20046;-67
2021/01/20 10:10:11;;;;;;;6.70;4.20;;;;;;;3.31;66.50;96169.72;5015344;28;20045;-66
2021/01/20 10:12:38;;;;;;;7.68;4.35;;;;;;;3.72;65.41;96159.91;5019646;28;20037;-65
2021/01/20 10:15:08;;;;;;;8.73;5.05;;;;;;;3.14;66.48;96156.34;5017402;28;20041;-64
2021/01/20 10:17:33;;;;;;;7.28;5.28;;;;;;;3.61;67.74;96167.69;5016315;28;20049;-67
2021/01/20 10:19:59;;;;;;;7.53;4.55;;;;;;;4.10;63.77;96148.00;5041338;28;20083;-67
2021/01/20 10:22:24;;;;;;;8.48;4.72;;;;;;;4.24;64.83;96146.91;5016430;28;20237;-67
2021/01/20 10:24:50;;;;;;;9.18;5.13;;;;;;;4.68;63.53;96152.50;5018891;28;20422;-68
2021/01/20 10:27:15;;;;;;;6.13;4.47;;;;;;;4.40;64.02;96140.44;5013412;28;20044;-68
2021/01/20 10:29:41;;;;;;;9.70;5.00;;;;;;;5.01;62.29;96135.28;5019118;28;20103;-67
2021/01/20 10:32:07;;;;;;;7.80;4.75;;;;;;;5.38;61.08;96140.53;5011628;28;20037;-67
2021/01/20 10:34:32;;;;;;;11.38;5.75;;;;;;;5.03;61.46;96136.50;5019333;28;20052;-67
2021/01/20 10:36:58;;;;;;;9.85;5.25;;;;;;;5.24;61.29;96139.03;5018975;28;20038;-67
2021/01/20 10:39:23;;;;;;;7.40;4.68;;;;;;;5.57;60.21;96129.81;5014417;28;20063;-67
2021/01/20 10:41:49;;;;;;;8.18;5.03;;;;;;;5.80;59.49;96112.91;5016134;28;20133;-67
2021/01/20 10:44:15;;;;;;;8.32;4.85;;;;;;;6.30;59.69;96116.88;5013188;28;20045;-67
2021/01/20 10:46:40;;;;;;;6.63;4.55;;;;;;;6.39;58.09;96101.19;5017742;28;20044;-68
2021/01/20 10:49:05;;;;;;;9.45;5.38;;;;;;;6.68;57.09;96109.97;5012840;28;20061;-64
2021/01/20 10:51:34;;;;;;;8.90;4.90;;;;;;;6.64;56.92;96104.44;5019589;28;20049;-66
2021/01/20 10:54:04;;;;;;;8.20;5.10;;;;;;;6.55;56.78;96101.13;5019203;28;20044;-66
2021/01/20 10:56:29;;;;;;;;;;;;;;;6.48;56.79;96085.47;5015916;28;20046;-67
2021/01/20 10:58:55;;;;;;;7.25;4.40;;;;;;;6.85;56.73;96087.00;5022630;28;19920;-65
2021/01/20 11:01:21;;;;;;;6.63;4.15;;;;;;;7.31;54.82;96078.97;5017858;28;20041;-65
2021/01/20 11:03:47;;;;;;;10.07;4.45;;;;;;;7.25;54.71;96078.47;5020476;28;20054;-66
2021/01/20 11:06:12;;;;;;;7.95;4.40;;;;;;;7.63;53.31;96074.13;5016127;28;20076;-66
2021/01/20 11:08:38;;;;;;;8.65;4.60;;;;;;;7.78;51.98;96069.69;5012639;28;20494;-65
2021/01/20 11:11:04;;;;;;;7.70;4.45;;;;;;;7.73;53.03;96064.53;5014413;28;20069;-64
2021/01/20 11:13:30;;;;;;;6.70;4.65;;;;;;;7.95;52.53;96054.78;5010509;28;20045;-64
2021/01/20 11:15:56;;;;;;;8.55;4.72;;;;;;;8.09;52.42;96054.22;5021889;28;20781;-66
2021/01/20 11:18:22;;;;;;;9.20;4.70;;;;;;;7.78;52.78;96053.34;5016135;28;20068;-66
2021/01/20 11:20:48;;;;;;;11.07;6.55;;;;;;;7.17;54.20;96046.81;5022772;28;20525;-67
2021/01/20 11:23:16;;;;;;;11.68;6.40;;;;;;;7.05;55.73;96041.50;5015611;28;20054;-66
2021/01/20 11:25:50;;;;;;;7.72;5.53;;;;;;;6.96;55.52;96043.66;5029095;28;20046;-66
2021/01/20 11:28:16;;;;;;;9.43;5.82;;;;;;;7.23;53.98;96031.72;5020252;28;20148;-65
2021/01/20 11:30:42;;;;;;;7.65;5.22;;;;;;;7.49;52.93;96021.28;5019943;28;20074;-66
2021/01/20 11:33:08;;;;;;;11.23;5.53;;;;;;;7.49;53.43;96024.81;5001492;28;20049;-65